createdAt,value
2023-04-18T00:01:25.035Z,7.40
2023-04-18T00:03:52.791Z,7.68
2023-04-18T00:06:22.155Z,8.30
2023-04-18T00:08:49.764Z,8.32
2023-04-18T00:11:17.448Z,7.40
2023-04-18T00:13:47.255Z,7.75
2023-04-18T00:16:15.472Z,7.95
2023-04-18T00:18:43.071Z,8.02
2023-04-18T00:21:11.023Z,7.50
2023-04-18T00:23:39.654Z,7.20
2023-04-18T00:26:07.259Z,7.45
2023-04-18T00:28:35.018Z,7.68
2023-04-18T00:31:03.040Z,7.70
2023-04-18T00:33:33.930Z,7.00
2023-04-18T00:36:01.696Z,7.63
2023-04-18T00:38:29.319Z,7.57
2023-04-18T00:40:56.960Z,7.45
2023-04-18T00:43:24.745Z,7.03
2023-04-18T00:45:52.448Z,7.05
2023-04-18T00:48:20.955Z,7.50
2023-04-18T00:50:48.633Z,7.28
2023-04-18T00:53:16.474Z,7.40
2023-04-18T00:55:44.960Z,7.85
2023-04-18T00:58:12.546Z,7.60
2023-04-18T01:00:40.785Z,7.53
2023-04-18T01:03:08.690Z,7.63
2023-04-18T01:05:36.813Z,7.35
2023-04-18T01:08:05.401Z,7.05
2023-04-18T01:10:37.280Z,5.95
2023-04-18T01:13:17.137Z,7.57
2023-04-18T01:15:47.308Z,7.43
2023-04-18T01:18:19.276Z,7.00
2023-04-18T01:20:53.180Z,7.47
2023-04-18T01:23:21.240Z,7.40
2023-04-18T01:25:51.888Z,7.28
2023-04-18T01:28:23.751Z,7.87
2023-04-18T01:30:51.612Z,7.57
2023-04-18T01:33:19.235Z,7.68
2023-04-18T01:35:47.986Z,7.45
2023-04-18T01:38:15.567Z,7.80
2023-04-18T01:40:43.197Z,7.70
2023-04-18T01:43:10.817Z,7.30
2023-04-18T01:45:38.868Z,7.85
2023-04-18T01:48:06.878Z,7.00
2023-04-18T01:50:34.590Z,7.28
2023-04-18T01:53:02.240Z,7.53
2023-04-18T01:55:30.142Z,7.38
2023-04-18T01:57:57.958Z,8.07
2023-04-18T02:00:25.725Z,8.25
2023-04-18T02:02:53.563Z,7.85
2023-04-18T02:05:22.211Z,8.35
2023-04-18T02:07:50.396Z,8.23
2023-04-18T02:10:19.265Z,8.05
2023-04-18T02:12:47.101Z,8.20
2023-04-18T02:15:14.895Z,9.07
2023-04-18T02:17:42.690Z,8.10
2023-04-18T02:20:11.028Z,8.45
2023-04-18T02:22:39.439Z,8.02
2023-04-18T02:25:07.935Z,8.15
2023-04-18T02:27:35.731Z,7.90
2023-04-18T02:30:03.638Z,8.30
2023-04-18T02:32:34.754Z,8.43
2023-04-18T02:35:02.573Z,8.73
2023-04-18T02:37:30.387Z,8.48
2023-04-18T02:39:58.236Z,8.40
2023-04-18T02:42:30.844Z,8.35
2023-04-18T02:44:58.779Z,8.32
2023-04-18T02:47:27.127Z,8.02
2023-04-18T02:49:54.911Z,8.32
2023-04-18T02:52:22.971Z,8.40
2023-04-18T02:54:50.734Z,8.63
2023-04-18T02:57:23.795Z,8.57
2023-04-18T02:59:54.090Z,8.27
2023-04-18T03:02:41.918Z,8.27
2023-04-18T03:05:42.755Z,7.70
2023-04-18T03:08:10.595Z,8.02
2023-04-18T03:10:40.032Z,8.13
2023-04-18T03:13:08.475Z,8.05
2023-04-18T03:15:36.884Z,8.65
2023-04-18T03:18:05.593Z,8.13
2023-04-18T03:20:37.491Z,8.07
2023-04-18T03:23:07.964Z,7.80
2023-04-18T03:25:36.361Z,8.60
2023-04-18T03:28:05.403Z,8.20
2023-04-18T03:30:34.704Z,8.25
2023-04-18T03:33:05.148Z,8.55
2023-04-18T03:35:33.105Z,8.38
2023-04-18T03:38:01.156Z,7.80
2023-04-18T03:40:31.993Z,8.48
2023-04-18T03:43:06.264Z,8.00
2023-04-18T03:45:33.993Z,8.48
2023-04-18T03:48:02.083Z,8.43
2023-04-18T03:50:31.576Z,8.80
2023-04-18T03:52:59.609Z,8.57
2023-04-18T03:55:30.273Z,8.53
2023-04-18T03:57:59.173Z,8.52
2023-04-18T04:00:30.187Z,8.48
2023-04-18T04:03:07.544Z,8.02
2023-04-18T04:05:37.223Z,8.40
2023-04-18T04:08:11.588Z,7.50
2023-04-18T04:10:39.493Z,8.02
2023-04-18T04:13:07.290Z,8.32
2023-04-18T04:15:38.918Z,8.37
2023-04-18T04:18:09.130Z,8.32
2023-04-18T04:20:40.085Z,8.43
2023-04-18T04:23:15.457Z,7.75
2023-04-18T04:25:46.379Z,9.27
2023-04-18T04:28:25.999Z,9.48
2023-04-18T04:30:59.498Z,8.85
2023-04-18T04:33:33.341Z,9.13
2023-04-18T04:36:06.767Z,8.75
2023-04-18T04:38:38.218Z,9.27
2023-04-18T04:41:08.092Z,9.15
2023-04-18T04:43:36.998Z,8.73
2023-04-18T04:46:05.495Z,9.60
2023-04-18T04:48:33.773Z,10.30
2023-04-18T04:51:05.506Z,9.27
2023-04-18T04:53:33.350Z,9.18
2023-04-18T04:56:04.783Z,9.00
2023-04-18T04:58:34.199Z,9.90
2023-04-18T05:01:20.403Z,11.18
2023-04-18T05:03:48.505Z,8.93
2023-04-18T05:06:20.668Z,9.13
2023-04-18T05:08:49.605Z,9.88
2023-04-18T05:11:17.909Z,10.73
2023-04-18T05:13:45.707Z,9.73
2023-04-18T05:16:14.408Z,9.48
2023-04-18T05:18:42.231Z,9.73
2023-04-18T05:21:09.881Z,8.55
2023-04-18T05:23:37.686Z,8.60
2023-04-18T05:26:06.266Z,8.57
2023-04-18T05:28:34.026Z,8.60
2023-04-18T05:31:01.781Z,8.45
2023-04-18T05:33:30.782Z,8.63
2023-04-18T05:36:00.654Z,9.10
2023-04-18T05:38:28.313Z,8.82
2023-04-18T05:40:57.055Z,8.63
2023-04-18T05:43:24.740Z,8.43
2023-04-18T05:45:52.883Z,8.90
2023-04-18T05:48:21.474Z,9.05
2023-04-18T05:50:49.300Z,8.82
2023-04-18T05:53:17.080Z,8.45
2023-04-18T05:55:46.520Z,8.35
2023-04-18T05:58:14.798Z,8.52
2023-04-18T06:00:44.960Z,8.68
2023-04-18T06:03:14.816Z,8.45
2023-04-18T06:05:42.929Z,8.57
2023-04-18T06:08:10.810Z,8.27
2023-04-18T06:10:39.419Z,8.48
2023-04-18T06:13:07.819Z,7.97
2023-04-18T06:15:37.617Z,9.18
2023-04-18T06:18:05.598Z,8.32
2023-04-18T06:20:33.376Z,8.60
2023-04-18T06:23:01.082Z,8.90
2023-04-18T06:25:30.776Z,9.57
2023-04-18T06:27:58.487Z,8.80
2023-04-18T06:30:26.297Z,9.35
2023-04-18T06:32:55.936Z,9.15
2023-04-18T06:35:26.618Z,9.55
2023-04-18T06:37:54.535Z,8.90
2023-04-18T06:40:25.392Z,9.32
2023-04-18T06:42:53.200Z,9.30
2023-04-18T06:45:20.961Z,9.48
2023-04-18T06:47:51.508Z,8.52
2023-04-18T06:50:19.586Z,9.30
2023-04-18T06:52:47.326Z,8.63
2023-04-18T06:55:15.204Z,8.63
2023-04-18T06:57:43.500Z,9.05
2023-04-18T07:00:18.280Z,9.13
2023-04-18T07:02:46.468Z,10.10
2023-04-18T07:05:14.569Z,9.10
2023-04-18T07:07:42.527Z,9.25
2023-04-18T07:10:11.463Z,8.60
2023-04-18T07:12:39.393Z,9.65
2023-04-18T07:15:10.125Z,8.93
2023-04-18T07:17:40.152Z,8.68
2023-04-18T07:20:14.239Z,9.52
2023-04-18T07:22:44.914Z,8.98
2023-04-18T07:25:14.296Z,10.27
2023-04-18T07:27:44.506Z,9.35
2023-04-18T07:30:13.552Z,9.27
2023-04-18T07:32:41.343Z,8.70
2023-04-18T07:35:10.877Z,8.63
2023-04-18T07:37:40.972Z,8.75
2023-04-18T07:40:09.374Z,9.45
2023-04-18T07:42:37.192Z,9.23
2023-04-18T07:45:05.824Z,8.50
2023-04-18T07:47:35.318Z,9.15
2023-04-18T07:50:05.827Z,8.80
2023-04-18T07:52:34.126Z,8.52
2023-04-18T07:55:09.317Z,8.82
2023-04-18T07:57:40.843Z,8.55
2023-04-18T08:02:44.656Z,8.27
2023-04-18T08:05:19.817Z,8.25
2023-04-18T08:07:49.667Z,9.80
2023-04-18T08:10:17.711Z,9.55
2023-04-18T08:12:45.608Z,9.00
2023-04-18T08:15:13.429Z,9.35
2023-04-18T08:17:43.834Z,9.43
2023-04-18T08:20:13.642Z,9.73
2023-04-18T08:22:57.671Z,10.02
2023-04-18T08:25:31.627Z,8.65
2023-04-18T08:28:01.413Z,9.30
2023-04-18T08:30:29.346Z,8.60
2023-04-18T08:32:57.123Z,9.52
2023-04-18T08:35:28.234Z,8.90
2023-04-18T08:40:25.537Z,7.95
2023-04-18T08:42:54.821Z,8.25
2023-04-18T08:45:22.516Z,8.80
2023-04-18T08:47:52.409Z,8.05
2023-04-18T08:50:23.165Z,7.90
2023-04-18T08:52:52.087Z,8.30
2023-04-18T08:55:22.290Z,8.48
2023-04-18T08:57:53.969Z,8.40
2023-04-18T09:00:28.602Z,8.00
2023-04-18T09:02:58.616Z,8.50
2023-04-18T09:05:29.147Z,7.97
2023-04-18T09:07:57.493Z,7.88
2023-04-18T09:10:36.490Z,8.13
2023-04-18T09:13:07.782Z,8.27
2023-04-18T09:15:37.474Z,8.23
2023-04-18T09:18:12.289Z,7.93
2023-04-18T09:20:42.127Z,7.70
2023-04-18T09:23:25.548Z,8.60
2023-04-18T09:25:53.760Z,8.02
2023-04-18T09:28:31.773Z,8.45
2023-04-18T09:31:19.354Z,8.43
2023-04-18T09:33:56.714Z,7.65
2023-04-18T09:36:27.686Z,7.85
2023-04-18T09:38:57.261Z,9.15
2023-04-18T09:41:25.248Z,8.73
2023-04-18T09:44:14.401Z,8.63
2023-04-18T09:46:47.213Z,8.02
2023-04-18T09:49:18.872Z,8.13
2023-04-18T09:54:17.025Z,7.82
2023-04-18T09:56:46.553Z,7.97
2023-04-18T09:59:27.513Z,8.18
2023-04-18T10:01:58.211Z,7.63
2023-04-18T10:04:29.193Z,7.53
2023-04-18T10:06:58.988Z,7.78
2023-04-18T10:09:33.139Z,8.43
2023-04-18T10:12:02.623Z,7.50
2023-04-18T10:14:33.881Z,7.40
2023-04-18T10:17:02.296Z,8.20
2023-04-18T10:19:30.297Z,7.47
2023-04-18T10:22:01.483Z,8.20
2023-04-18T10:24:57.876Z,7.40
2023-04-18T10:27:47.491Z,7.63
2023-04-18T10:30:20.820Z,7.30
2023-04-18T10:32:54.921Z,8.07
2023-04-18T10:35:24.756Z,7.47
2023-04-18T10:37:58.950Z,7.65
2023-04-18T10:40:35.191Z,7.20
2023-04-18T10:43:04.328Z,7.60
2023-04-18T10:45:36.300Z,7.53
2023-04-18T10:48:31.589Z,7.53
2023-04-18T10:51:20.890Z,7.13
2023-04-18T10:53:53.489Z,8.10
2023-04-18T10:56:21.864Z,7.07
2023-04-18T10:58:54.506Z,7.13
2023-04-18T11:01:31.211Z,6.90
2023-04-18T11:04:01.900Z,7.45
2023-04-18T11:06:31.245Z,7.40
2023-04-18T11:09:14.546Z,7.10
2023-04-18T11:11:43.343Z,6.97
2023-04-18T11:14:11.775Z,6.95
2023-04-18T11:16:40.499Z,7.40
2023-04-18T11:19:25.207Z,6.88
2023-04-18T11:22:04.245Z,6.30
2023-04-18T11:24:31.988Z,6.78
2023-04-18T11:27:01.799Z,6.85
2023-04-18T11:29:31.471Z,6.07
2023-04-18T11:31:59.245Z,6.68
2023-04-18T11:34:31.525Z,6.15
2023-04-18T11:37:01.664Z,5.95
2023-04-18T11:39:31.721Z,6.87
2023-04-18T11:42:01.853Z,6.75
2023-04-18T11:44:33.168Z,5.97
2023-04-18T11:47:02.790Z,6.30
2023-04-18T11:49:32.786Z,6.13
2023-04-18T11:52:01.556Z,6.07
2023-04-18T11:54:39.905Z,6.28
2023-04-18T11:57:26.401Z,6.45
2023-04-18T11:59:57.870Z,5.85
2023-04-18T12:02:45.363Z,5.72
2023-04-18T12:05:26.516Z,6.38
2023-04-18T12:07:54.728Z,6.38
2023-04-18T12:10:29.117Z,6.90
2023-04-18T12:13:01.003Z,7.22
2023-04-18T12:15:29.806Z,6.05
2023-04-18T12:18:02.530Z,6.88
2023-04-18T12:20:54.135Z,6.15
2023-04-18T12:23:40.325Z,5.90
2023-04-18T12:26:14.021Z,5.90
2023-04-18T12:28:46.476Z,6.32
2023-04-18T12:31:16.566Z,6.18
2023-04-18T12:33:47.251Z,5.95
2023-04-18T12:36:15.161Z,5.60
2023-04-18T12:38:45.709Z,5.47
2023-04-18T12:41:13.496Z,5.50
2023-04-18T12:43:41.246Z,5.20
2023-04-18T12:46:09.789Z,5.05
2023-04-18T12:48:37.500Z,5.05
2023-04-18T12:51:06.878Z,5.15
2023-04-18T12:56:05.122Z,4.35
2023-04-18T12:58:34.535Z,4.38
2023-04-18T13:01:02.224Z,4.28
2023-04-18T13:03:31.941Z,4.30
2023-04-18T13:06:01.222Z,4.60
2023-04-18T13:08:30.809Z,4.57
2023-04-18T13:10:58.947Z,4.10
2023-04-18T13:13:28.674Z,4.07
2023-04-18T13:15:56.665Z,4.15
2023-04-18T13:18:24.509Z,3.88
2023-04-18T13:20:52.539Z,3.80
2023-04-18T13:23:26.768Z,3.78
2023-04-18T13:25:55.078Z,3.97
2023-04-18T13:28:22.799Z,3.55
2023-04-18T13:30:52.731Z,3.97
2023-04-18T13:33:20.552Z,4.35
2023-04-18T13:35:48.468Z,3.80
2023-04-18T13:38:16.332Z,3.38
2023-04-18T13:40:43.995Z,3.40
2023-04-18T13:43:13.027Z,3.63
2023-04-18T13:45:47.353Z,3.70
2023-04-18T13:48:16.355Z,3.63
2023-04-18T13:50:45.716Z,3.45
2023-04-18T13:53:16.256Z,3.70
2023-04-18T13:55:46.736Z,3.65
2023-04-18T13:58:15.628Z,3.72
2023-04-18T14:00:45.046Z,3.90
2023-04-18T14:03:13.138Z,4.13
2023-04-18T14:05:40.928Z,3.55
2023-04-18T14:08:10.627Z,3.80
2023-04-18T14:10:38.796Z,3.90
2023-04-18T14:13:07.255Z,3.75
2023-04-18T14:15:35.571Z,3.78
2023-04-18T14:18:07.316Z,3.63
2023-04-18T14:20:39.829Z,3.22
2023-04-18T14:23:09.564Z,3.13
2023-04-18T14:25:39.018Z,3.20
2023-04-18T14:28:09.714Z,3.42
2023-04-18T14:30:41.480Z,3.00
2023-04-18T14:33:10.063Z,3.30
2023-04-18T14:35:37.912Z,3.30
2023-04-18T14:38:06.413Z,3.40
2023-04-18T14:40:34.347Z,3.13
2023-04-18T14:43:02.403Z,3.50
2023-04-18T14:45:33.958Z,3.42
2023-04-18T14:48:03.808Z,3.42
2023-04-18T14:50:31.740Z,3.72
2023-04-18T14:52:59.496Z,3.17
2023-04-18T14:55:27.307Z,3.30
2023-04-18T14:57:55.045Z,3.40
2023-04-18T15:00:22.804Z,3.03
2023-04-18T15:02:52.704Z,3.08
2023-04-18T15:05:25.854Z,2.83
2023-04-18T15:07:53.701Z,3.00
2023-04-18T15:10:22.467Z,2.97
2023-04-18T15:12:51.215Z,2.80
2023-04-18T15:15:19.655Z,2.90
2023-04-18T15:17:47.412Z,3.10
2023-04-18T15:20:16.504Z,3.13
2023-04-18T15:22:44.181Z,3.05
2023-04-18T15:25:16.230Z,3.53
2023-04-18T15:27:43.987Z,3.05
2023-04-18T15:30:12.237Z,3.22
2023-04-18T15:35:10.758Z,3.60
2023-04-18T15:37:38.518Z,3.00
2023-04-18T15:40:09.568Z,2.92
2023-04-18T15:42:39.189Z,3.40
2023-04-18T15:45:08.007Z,3.05
2023-04-18T15:47:36.170Z,3.00
2023-04-18T15:50:05.004Z,3.28
2023-04-18T15:52:34.914Z,2.90
2023-04-18T15:55:03.333Z,3.15
2023-04-18T15:57:32.064Z,2.88
2023-04-18T16:00:00.360Z,3.40
2023-04-18T16:02:28.144Z,2.97
2023-04-18T16:04:55.939Z,3.45
2023-04-18T16:07:23.685Z,3.45
2023-04-18T16:09:51.681Z,3.50
2023-04-18T16:12:19.396Z,3.03
2023-04-18T16:14:48.805Z,3.00
2023-04-18T16:17:18.113Z,3.45
2023-04-18T16:19:46.152Z,3.67
2023-04-18T16:22:14.993Z,3.20
2023-04-18T16:24:42.719Z,3.63
2023-04-18T16:27:10.559Z,3.15
2023-04-18T16:29:38.293Z,3.30
2023-04-18T16:32:09.133Z,3.40
2023-04-18T16:34:36.892Z,3.25
2023-04-18T16:37:04.660Z,3.20
2023-04-18T16:39:32.500Z,3.60
2023-04-18T16:42:00.330Z,3.53
2023-04-18T16:44:28.097Z,3.15
2023-04-18T16:46:57.414Z,3.53
2023-04-18T16:49:26.074Z,3.60
2023-04-18T16:51:53.911Z,3.22
2023-04-18T16:54:21.672Z,3.40
2023-04-18T16:56:49.401Z,3.38
2023-04-18T16:59:17.730Z,3.75
2023-04-18T17:01:45.590Z,3.40
2023-04-18T17:04:16.193Z,3.65
2023-04-18T17:06:44.624Z,3.85
2023-04-18T17:09:14.521Z,3.92
2023-04-18T17:11:42.837Z,3.58
2023-04-18T17:14:11.539Z,3.78
2023-04-18T17:16:41.611Z,3.88
2023-04-18T17:19:10.145Z,3.70
2023-04-18T17:21:38.381Z,3.70
2023-04-18T17:24:07.574Z,4.25
2023-04-18T17:26:38.236Z,4.72
2023-04-18T17:29:06.306Z,4.80
2023-04-18T17:31:34.216Z,4.45
2023-04-18T17:34:03.616Z,4.82
2023-04-18T17:36:31.473Z,4.00
2023-04-18T17:39:07.200Z,3.60
2023-04-18T17:41:38.179Z,4.28
2023-04-18T17:44:10.393Z,3.83
2023-04-18T17:46:38.217Z,4.00
2023-04-18T17:49:06.384Z,3.88
2023-04-18T17:51:34.217Z,3.70
2023-04-18T17:54:02.184Z,3.63
2023-04-18T17:56:31.430Z,3.42
2023-04-18T17:58:59.168Z,3.60
2023-04-18T18:01:30.185Z,3.50
2023-04-18T18:03:58.207Z,3.80
2023-04-18T18:06:29.525Z,3.60
2023-04-18T18:08:59.286Z,3.85
2023-04-18T18:11:27.681Z,3.25
2023-04-18T18:13:57.314Z,3.42
2023-04-18T18:16:25.163Z,3.70
2023-04-18T18:18:53.010Z,3.60
2023-04-18T18:21:20.744Z,3.67
2023-04-18T18:23:48.466Z,3.72
2023-04-18T18:26:16.361Z,3.80
2023-04-18T18:28:44.089Z,3.70
2023-04-18T18:31:11.909Z,3.55
2023-04-18T18:33:39.756Z,3.85
2023-04-18T18:36:07.557Z,3.67
2023-04-18T18:38:36.705Z,3.83
2023-04-18T18:41:04.849Z,4.32
2023-04-18T18:43:32.724Z,4.15
2023-04-18T18:46:00.833Z,4.18
2023-04-18T18:48:28.744Z,4.82
2023-04-18T18:50:57.250Z,4.47
2023-04-18T18:53:25.163Z,4.35
2023-04-18T18:55:52.952Z,4.88
2023-04-18T18:58:20.749Z,4.40
2023-04-18T19:00:48.691Z,4.55
2023-04-18T19:03:21.053Z,4.70
2023-04-18T19:05:56.598Z,4.88
2023-04-18T19:08:24.366Z,4.93
2023-04-18T19:10:53.857Z,5.13
2023-04-18T19:13:25.809Z,5.22
2023-04-18T19:15:53.635Z,5.22
2023-04-18T19:18:21.404Z,5.30
2023-04-18T19:20:50.994Z,5.28
2023-04-18T19:23:19.390Z,5.00
2023-04-18T19:25:47.276Z,5.85
2023-04-18T19:28:15.684Z,5.07
2023-04-18T19:30:43.919Z,5.93
2023-04-18T19:33:13.577Z,6.00
2023-04-18T19:35:43.461Z,5.97
2023-04-18T19:38:11.296Z,5.97
2023-04-18T19:40:39.150Z,6.03
2023-04-18T19:43:06.912Z,6.00
2023-04-18T19:45:34.777Z,6.63
2023-04-18T19:48:02.712Z,7.07
2023-04-18T19:50:30.645Z,6.80
2023-04-18T19:52:58.375Z,6.85
2023-04-18T19:55:27.510Z,7.15
2023-04-18T19:57:58.940Z,7.28
2023-04-18T20:02:59.451Z,6.65
2023-04-18T20:05:27.472Z,7.18
2023-04-18T20:07:55.253Z,6.68
2023-04-18T20:10:23.189Z,7.28
2023-04-18T20:12:51.394Z,7.00
2023-04-18T20:15:19.076Z,7.63
2023-04-18T20:17:46.964Z,7.38
2023-04-18T20:20:14.689Z,6.60
2023-04-18T20:22:44.659Z,6.75
2023-04-18T20:25:12.613Z,7.30
2023-04-18T20:27:40.513Z,7.25
2023-04-18T20:30:08.896Z,7.57
2023-04-18T20:32:36.846Z,7.38
2023-04-18T20:35:05.214Z,7.88
2023-04-18T20:37:36.669Z,7.80
2023-04-18T20:40:07.109Z,7.88
2023-04-18T20:42:34.971Z,7.80
2023-04-18T20:45:03.862Z,7.68
2023-04-18T20:47:33.872Z,8.35
2023-04-18T20:50:01.626Z,7.75
2023-04-18T20:52:29.452Z,7.80
2023-04-18T20:54:58.421Z,7.85
2023-04-18T20:57:26.300Z,8.13
2023-04-18T20:59:54.115Z,8.40
2023-04-18T21:02:22.030Z,7.93
2023-04-18T21:04:49.834Z,8.38
2023-04-18T21:07:20.038Z,8.23
2023-04-18T21:09:47.691Z,8.27
2023-04-18T21:12:15.663Z,8.13
2023-04-18T21:14:43.568Z,8.40
2023-04-18T21:17:16.902Z,8.23
2023-04-18T21:19:48.592Z,7.85
2023-04-18T21:22:17.696Z,8.20
2023-04-18T21:24:46.773Z,7.75
2023-04-18T21:27:15.870Z,7.63
2023-04-18T21:29:43.721Z,8.10
2023-04-18T21:32:11.385Z,8.15
2023-04-18T21:34:39.119Z,8.10
2023-04-18T21:37:06.868Z,8.00
2023-04-18T21:39:34.649Z,8.10
2023-04-18T21:42:03.037Z,8.40
2023-04-18T21:44:31.128Z,7.88
2023-04-18T21:46:59.043Z,8.25
2023-04-18T21:49:26.832Z,8.48
2023-04-18T21:51:55.019Z,7.55
2023-04-18T21:54:22.780Z,8.00
2023-04-18T21:56:50.505Z,7.95
2023-04-18T21:59:18.194Z,9.18
2023-04-18T22:01:45.977Z,7.80
2023-04-18T22:04:14.625Z,8.15
2023-04-18T22:06:43.263Z,8.07
2023-04-18T22:09:11.749Z,8.18
2023-04-18T22:11:39.523Z,8.00
2023-04-18T22:14:07.494Z,8.25
2023-04-18T22:16:35.307Z,7.90
2023-04-18T22:19:04.012Z,7.38
2023-04-18T22:21:31.808Z,8.30
2023-04-18T22:23:59.541Z,8.02
2023-04-18T22:26:27.244Z,8.15
2023-04-18T22:28:55.054Z,8.27
2023-04-18T22:31:22.827Z,8.50
2023-04-18T22:33:50.707Z,7.63
2023-04-18T22:36:18.428Z,7.35
2023-04-18T22:38:46.188Z,8.10
2023-04-18T22:41:14.028Z,8.43
2023-04-18T22:43:41.766Z,8.38
2023-04-18T22:46:09.492Z,7.85
2023-04-18T22:48:38.403Z,8.77
2023-04-18T22:51:06.258Z,8.15
2023-04-18T22:53:33.930Z,7.75
2023-04-18T22:56:01.709Z,7.68
2023-04-18T22:58:29.693Z,8.07
2023-04-18T23:00:57.499Z,7.78
2023-04-18T23:03:25.326Z,7.93
2023-04-18T23:05:53.086Z,8.07
2023-04-18T23:08:22.552Z,7.88
2023-04-18T23:10:50.474Z,7.93
2023-04-18T23:13:18.237Z,8.27
2023-04-18T23:15:45.949Z,7.63
2023-04-18T23:18:13.779Z,7.43
2023-04-18T23:20:41.552Z,7.22
2023-04-18T23:23:09.340Z,7.70
2023-04-18T23:25:37.080Z,7.35
2023-04-18T23:28:05.151Z,6.97
2023-04-18T23:30:36.920Z,7.10
2023-04-18T23:33:04.769Z,6.95
2023-04-18T23:35:32.560Z,6.60
2023-04-18T23:38:00.273Z,7.45
2023-04-18T23:40:28.433Z,6.68
2023-04-18T23:42:56.162Z,7.03
2023-04-18T23:45:24.337Z,7.10
2023-04-18T23:47:52.483Z,6.90
2023-04-18T23:50:20.788Z,7.07
2023-04-18T23:52:48.441Z,7.20
2023-04-18T23:55:16.664Z,7.25
2023-04-18T23:57:44.435Z,7.10
